SÍGUENOS

APP INUMET

Disponible en Google Play

Productos aeronáuticos

  • SIGMET
  • METAR / SPECI
  • TAF
  • AIREP
  • Aviso de aeródromo
  • Pronárea
  • Carta superficie

Mensajes METAR de la última hora

SULS 240400Z 01007KT 330V060 CAVOK 12/08 Q1018
SUMU 240400Z 03008KT CAVOK 13/06 Q1017 NOSIG

Mensajes METAR de la última hora - Internacionales


Argentina
SAAR 240400Z 05006KT CAVOK 16/11 Q1015
SABE 240400Z 02010KT CAVOK 19/13 Q1016
SACO 240400Z 01008KT CAVOK 11/06 Q1014
SAEZ 240400Z 00000KT CAVOK 13/12 Q1015
SAME 240400Z 00000KT CAVOK 19/05 Q1011
Bolivia
SLLP 240400Z 06005KT 9999 FEW013 SCT200 04/M02 Q1037
Brasil
SBBR 240400Z 00000KT 9999 FEW040 BKN100 22/14 Q1018
SBFI 240400Z 12005KT CAVOK 17/14 Q1015
SBFL 240400Z 00000KT CAVOK 13/10 Q1021
SBGR 240400Z 12005KT 9999 OVC013 14/13 Q1021
SBPA 240400Z 11007KT CAVOK 14/10 Q1019
SBRJ 240400Z 17006KT 9999 FEW004 BKN010 OVC030 18/18 Q1020 REDZ
SBSP 240400Z AUTO 12005KT 090V150 9999 FEW014 BKN024 OVC035 14/10 Q1022
Chile
SCCI 240400Z 28017KT 9999 FEW049 SCT200 04/00 Q0989 NOSIG
SCEL 240400Z 14008KT CAVOK 16/M01 Q1019 NOSIG
Ecuador
SEQM 240400Z 09003KT 9999 FEW005 SCT026 BKN080 11/11 Q1028 NOSIG RMK A3035
EEUU
KDCA 240412Z 16014G20KT 10SM -RA SCT021 BKN032 OVC049 21/20 A2979 RMK AO2 P0002 T02110200
KMIA 240353Z 12009KT 10SM FEW020 BKN160 OVC250 27/23 A2998 RMK AO2 SLP153 T02720233 $
KDCA 240352Z 16013G24KT 10SM -RA BKN021 BKN029 OVC034 22/20 A2981 RMK AO2 PK WND 17027/0340 PRESFR SLP092 P0001 T02170200
KIAD 240352Z 15012G20KT 10SM -RA BKN014 BKN022 OVC080 20/19 A2976 RMK AO2 RAB0256 PRESFR SLP077 P0002 T02000194
KJFK 240351Z 14018KT 10SM FEW016 SCT032 SCT070 OVC250 19/19 A2999 RMK AO2 SLP156 T01940189
KLGA 240351Z 15016G25KT 10SM SCT015 SCT030 OVC240 21/18 A2998 RMK AO2 SLP151 T02110183
KDCA 240341Z 17023G27KT 10SM -RA BKN024 BKN029 OVC037 22/19 A2984 RMK AO2 PK WND 17027/0340 P0001 T02170194
Francia
LFPO 240400Z 20006KT 8000 BKN005 14/13 Q1023 TEMPO 2000 -DZ BKN004
LFPO 240330Z 20005KT 170V230 8000 BKN005 14/13 Q1023 TEMPO 2000 -DZ BKN004
Paraguay
SGAS 240400Z 15002KT CAVOK 19/09 Q1013
Venezuela
SVMI 240400Z /////KT 9999 FEW016 25/22 Q1011

* Datos extraidos del Text DataServer de la NOAA (NOAA TEXT DATA SERVER)

Instituto Uruguayo de Meteorología

Dr. Javier Barrios Amorín 1488 - CP 11200
Mesa Central (598) 1895 - Desde el interior 21895

Montevideo - Uruguay